Decoded Metar for EPKT (KATOWICE in POLAND) (IATA:KTW) | Meteo·Mobile Aviation Weather
aviador You're here:

EPKT Decoded Metar

KATOWICE in POLAND
Report Time2018-09-18 13:30:00
UTC Time2018-09-18 14:04:27
Flight Rules vfr VFR
Wind190° at 09 kt
W.Decomp.*RWY 27: 0.9 kt HW 9 kt LCW
W.Rank190° ranks 24
Current wind is above 190° avg. (5.9)
Visibility9999 m
Phenomena:N/A
Clouds:N/A
Expected CloudBase > 5,600 ft AGL from Temp-Dew spread
CeilingNone
Temp26°C (ISA +13)
Dew Point12°C (42% RH)
AAT23.4°C
QNH1020 hPa
Density Alt2,372 ft
Elevation932 ft
Report Wrong Elevation
Raw Report
EPKT 181330Z 19009KT 150V220 CAVOK 26/12 Q1020=

Extra information for EPKT:More info

Metar Taf Metar & Taf Last 4 Metars F.Rules Stats Wind Profile Meteogram Temp Stats Airport Information Weather charts Add Link Nearby VenuesMetar ALERT Operation Metar Decoded Social comments